sensor_id;sensor_type;location;lat;lon;timestamp;P1;durP1;ratioP1;P2;durP2;ratioP2
4724;SDS011;2376;53.544;10.226;2023-03-23T00:01:09;5.33;;;4.83;;
4724;SDS011;2376;53.544;10.226;2023-03-23T00:03:38;5.50;;;5.00;;
4724;SDS011;2376;53.544;10.226;2023-03-23T00:06:05;7.13;;;5.10;;
4724;SDS011;2376;53.544;10.226;2023-03-23T00:08:33;5.20;;;4.80;;
4724;SDS011;2376;53.544;10.226;2023-03-23T00:11:02;7.23;;;5.87;;
4724;SDS011;2376;53.544;10.226;2023-03-23T00:13:31;7.60;;;5.97;;
4724;SDS011;2376;53.544;10.226;2023-03-23T00:15:58;6.90;;;6.30;;
4724;SDS011;2376;53.544;10.226;2023-03-23T00:18:25;7.47;;;6.80;;
4724;SDS011;2376;53.544;10.226;2023-03-23T00:20:52;8.50;;;5.87;;
4724;SDS011;2376;53.544;10.226;2023-03-23T00:23:21;14.83;;;7.83;;
4724;SDS011;2376;53.544;10.226;2023-03-23T00:25:50;9.10;;;7.13;;
4724;SDS011;2376;53.544;10.226;2023-03-23T00:28:22;9.47;;;7.00;;
4724;SDS011;2376;53.544;10.226;2023-03-23T00:30:55;7.23;;;6.63;;
4724;SDS011;2376;53.544;10.226;2023-03-23T00:33:23;8.50;;;7.13;;
4724;SDS011;2376;53.544;10.226;2023-03-23T00:35:51;7.73;;;6.90;;
4724;SDS011;2376;53.544;10.226;2023-03-23T00:38:19;8.30;;;7.43;;
4724;SDS011;2376;53.544;10.226;2023-03-23T00:40:46;8.00;;;7.30;;
4724;SDS011;2376;53.544;10.226;2023-03-23T00:43:13;9.00;;;7.87;;
4724;SDS011;2376;53.544;10.226;2023-03-23T00:45:40;8.37;;;7.77;;
4724;SDS011;2376;53.544;10.226;2023-03-23T00:48:08;12.73;;;8.57;;
4724;SDS011;2376;53.544;10.226;2023-03-23T00:50:37;9.70;;;8.70;;
4724;SDS011;2376;53.544;10.226;2023-03-23T00:53:04;10.43;;;9.17;;
4724;SDS011;2376;53.544;10.226;2023-03-23T00:55:31;10.47;;;9.37;;
4724;SDS011;2376;53.544;10.226;2023-03-23T00:57:58;13.70;;;10.47;;
4724;SDS011;2376;53.544;10.226;2023-03-23T01:00:25;14.03;;;10.70;;
4724;SDS011;2376;53.544;10.226;2023-03-23T01:02:52;13.60;;;10.57;;
4724;SDS011;2376;53.544;10.226;2023-03-23T01:05:21;12.73;;;10.67;;
4724;SDS011;2376;53.544;10.226;2023-03-23T01:07:48;11.53;;;10.40;;
4724;SDS011;2376;53.544;10.226;2023-03-23T01:10:15;12.53;;;11.23;;
4724;SDS011;2376;53.544;10.226;2023-03-23T01:12:43;13.87;;;9.90;;
4724;SDS011;2376;53.544;10.226;2023-03-23T01:15:13;11.73;;;10.10;;
4724;SDS011;2376;53.544;10.226;2023-03-23T01:17:41;12.00;;;9.90;;
4724;SDS011;2376;53.544;10.226;2023-03-23T01:20:08;10.63;;;9.53;;
4724;SDS011;2376;53.544;10.226;2023-03-23T01:22:37;11.63;;;10.47;;
4724;SDS011;2376;53.544;10.226;2023-03-23T01:25:04;12.10;;;9.33;;
4724;SDS011;2376;53.544;10.226;2023-03-23T01:27:32;10.87;;;9.87;;
4724;SDS011;2376;53.544;10.226;2023-03-23T01:29:59;11.63;;;10.30;;
4724;SDS011;2376;53.544;10.226;2023-03-23T01:32:25;13.80;;;9.93;;
4724;SDS011;2376;53.544;10.226;2023-03-23T01:34:52;10.43;;;9.50;;
4724;SDS011;2376;53.544;10.226;2023-03-23T01:37:19;11.27;;;10.30;;
4724;SDS011;2376;53.544;10.226;2023-03-23T01:39:52;13.80;;;10.37;;
4724;SDS011;2376;53.544;10.226;2023-03-23T01:42:21;10.73;;;9.73;;
4724;SDS011;2376;53.544;10.226;2023-03-23T01:47:47;9.80;;;8.87;;
4724;SDS011;2376;53.544;10.226;2023-03-23T01:50:18;10.77;;;9.63;;
4724;SDS011;2376;53.544;10.226;2023-03-23T01:52:47;10.73;;;9.83;;
4724;SDS011;2376;53.544;10.226;2023-03-23T01:55:17;11.27;;;10.17;;
4724;SDS011;2376;53.544;10.226;2023-03-23T01:57:45;10.23;;;9.03;;
4724;SDS011;2376;53.544;10.226;2023-03-23T02:00:13;10.80;;;9.70;;
4724;SDS011;2376;53.544;10.226;2023-03-23T02:02:41;12.57;;;10.53;;
4724;SDS011;2376;53.544;10.226;2023-03-23T02:05:10;10.83;;;9.70;;
4724;SDS011;2376;53.544;10.226;2023-03-23T02:07:39;10.20;;;9.20;;
4724;SDS011;2376;53.544;10.226;2023-03-23T02:10:07;11.10;;;9.10;;
4724;SDS011;2376;53.544;10.226;2023-03-23T02:12:37;11.50;;;9.50;;
4724;SDS011;2376;53.544;10.226;2023-03-23T02:15:04;12.30;;;9.90;;
4724;SDS011;2376;53.544;10.226;2023-03-23T02:17:33;10.17;;;9.27;;
4724;SDS011;2376;53.544;10.226;2023-03-23T02:20:16;11.03;;;9.90;;
4724;SDS011;2376;53.544;10.226;2023-03-23T02:22:58;11.70;;;10.60;;
4724;SDS011;2376;53.544;10.226;2023-03-23T02:25:44;10.60;;;9.70;;
4724;SDS011;2376;53.544;10.226;2023-03-23T02:28:28;12.80;;;11.60;;
4724;SDS011;2376;53.544;10.226;2023-03-23T02:31:13;12.10;;;11.10;;
4724;SDS011;2376;53.544;10.226;2023-03-23T02:34:04;12.53;;;11.33;;
4724;SDS011;2376;53.544;10.226;2023-03-23T02:36:34;11.27;;;10.20;;
4724;SDS011;2376;53.544;10.226;2023-03-23T02:39:09;12.20;;;11.20;;
4724;SDS011;2376;53.544;10.226;2023-03-23T02:41:41;12.50;;;10.70;;
4724;SDS011;2376;53.544;10.226;2023-03-23T02:44:11;12.23;;;11.03;;
4724;SDS011;2376;53.544;10.226;2023-03-23T02:46:40;11.63;;;10.40;;
4724;SDS011;2376;53.544;10.226;2023-03-23T02:49:10;13.10;;;10.90;;
4724;SDS011;2376;53.544;10.226;2023-03-23T02:51:40;12.40;;;11.30;;
4724;SDS011;2376;53.544;10.226;2023-03-23T02:54:11;10.77;;;9.77;;
4724;SDS011;2376;53.544;10.226;2023-03-23T02:56:39;11.67;;;10.63;;
4724;SDS011;2376;53.544;10.226;2023-03-23T02:59:07;11.87;;;10.77;;
4724;SDS011;2376;53.544;10.226;2023-03-23T03:01:48;12.17;;;10.63;;
4724;SDS011;2376;53.544;10.226;2023-03-23T03:04:21;10.90;;;9.80;;
4724;SDS011;2376;53.544;10.226;2023-03-23T03:06:54;11.00;;;10.00;;
4724;SDS011;2376;53.544;10.226;2023-03-23T03:09:33;11.70;;;10.60;;
4724;SDS011;2376;53.544;10.226;2023-03-23T03:12:09;14.40;;;11.47;;
4724;SDS011;2376;53.544;10.226;2023-03-23T03:14:41;10.83;;;9.83;;
4724;SDS011;2376;53.544;10.226;2023-03-23T03:17:17;10.70;;;9.80;;
4724;SDS011;2376;53.544;10.226;2023-03-23T03:19:51;12.00;;;10.90;;
4724;SDS011;2376;53.544;10.226;2023-03-23T03:22:22;10.57;;;9.60;;
4724;SDS011;2376;53.544;10.226;2023-03-23T03:24:53;13.63;;;11.10;;
4724;SDS011;2376;53.544;10.226;2023-03-23T03:27:21;11.10;;;10.00;;
4724;SDS011;2376;53.544;10.226;2023-03-23T03:29:51;12.07;;;10.70;;
4724;SDS011;2376;53.544;10.226;2023-03-23T03:32:22;11.50;;;10.50;;
4724;SDS011;2376;53.544;10.226;2023-03-23T03:34:57;11.10;;;10.03;;
4724;SDS011;2376;53.544;10.226;2023-03-23T03:37:34;11.27;;;10.27;;
4724;SDS011;2376;53.544;10.226;2023-03-23T03:40:03;11.50;;;10.30;;
4724;SDS011;2376;53.544;10.226;2023-03-23T03:42:37;11.33;;;9.97;;
4724;SDS011;2376;53.544;10.226;2023-03-23T03:45:05;11.50;;;10.10;;
4724;SDS011;2376;53.544;10.226;2023-03-23T03:47:33;10.20;;;9.37;;
4724;SDS011;2376;53.544;10.226;2023-03-23T03:50:01;14.63;;;10.40;;
4724;SDS011;2376;53.544;10.226;2023-03-23T03:52:28;11.03;;;10.03;;
4724;SDS011;2376;53.544;10.226;2023-03-23T03:54:56;15.63;;;10.10;;
4724;SDS011;2376;53.544;10.226;2023-03-23T03:57:23;12.53;;;11.23;;
4724;SDS011;2376;53.544;10.226;2023-03-23T03:59:50;12.27;;;11.13;;
4724;SDS011;2376;53.544;10.226;2023-03-23T04:02:17;12.10;;;11.00;;
4724;SDS011;2376;53.544;10.226;2023-03-23T04:04:45;11.97;;;10.70;;
4724;SDS011;2376;53.544;10.226;2023-03-23T04:07:12;11.90;;;10.80;;
4724;SDS011;2376;53.544;10.226;2023-03-23T04:09:41;12.00;;;11.00;;
4724;SDS011;2376;53.544;10.226;2023-03-23T04:12:10;13.93;;;10.93;;
4724;SDS011;2376;53.544;10.226;2023-03-23T04:14:36;12.23;;;10.57;;
4724;SDS011;2376;53.544;10.226;2023-03-23T04:17:03;12.70;;;11.40;;
4724;SDS011;2376;53.544;10.226;2023-03-23T04:19:32;12.33;;;11.03;;
4724;SDS011;2376;53.544;10.226;2023-03-23T04:22:01;12.07;;;11.07;;
4724;SDS011;2376;53.544;10.226;2023-03-23T04:24:28;11.73;;;10.80;;
4724;SDS011;2376;53.544;10.226;2023-03-23T04:26:57;12.00;;;11.00;;
4724;SDS011;2376;53.544;10.226;2023-03-23T04:29:25;12.50;;;11.47;;
4724;SDS011;2376;53.544;10.226;2023-03-23T04:31:52;11.73;;;9.97;;
4724;SDS011;2376;53.544;10.226;2023-03-23T04:34:21;12.53;;;11.40;;
4724;SDS011;2376;53.544;10.226;2023-03-23T04:36:48;11.50;;;10.50;;
4724;SDS011;2376;53.544;10.226;2023-03-23T04:39:16;12.00;;;10.73;;
4724;SDS011;2376;53.544;10.226;2023-03-23T04:41:43;14.33;;;12.93;;
4724;SDS011;2376;53.544;10.226;2023-03-23T04:44:10;12.80;;;11.70;;
4724;SDS011;2376;53.544;10.226;2023-03-23T04:46:44;12.47;;;11.37;;
4724;SDS011;2376;53.544;10.226;2023-03-23T04:49:14;12.93;;;11.70;;
4724;SDS011;2376;53.544;10.226;2023-03-23T04:51:46;12.33;;;11.23;;
4724;SDS011;2376;53.544;10.226;2023-03-23T04:54:13;14.07;;;11.20;;
4724;SDS011;2376;53.544;10.226;2023-03-23T04:56:40;13.60;;;11.00;;
4724;SDS011;2376;53.544;10.226;2023-03-23T04:59:07;13.57;;;12.27;;
4724;SDS011;2376;53.544;10.226;2023-03-23T05:01:34;15.27;;;12.60;;
4724;SDS011;2376;53.544;10.226;2023-03-23T05:04:04;12.93;;;11.73;;
4724;SDS011;2376;53.544;10.226;2023-03-23T05:06:31;13.73;;;12.50;;
4724;SDS011;2376;53.544;10.226;2023-03-23T05:08:58;13.03;;;11.73;;
4724;SDS011;2376;53.544;10.226;2023-03-23T05:11:24;13.50;;;12.30;;
4724;SDS011;2376;53.544;10.226;2023-03-23T05:13:51;13.07;;;11.93;;
4724;SDS011;2376;53.544;10.226;2023-03-23T05:16:18;13.07;;;11.77;;
4724;SDS011;2376;53.544;10.226;2023-03-23T05:18:45;12.80;;;11.70;;
4724;SDS011;2376;53.544;10.226;2023-03-23T05:21:14;13.37;;;12.03;;
4724;SDS011;2376;53.544;10.226;2023-03-23T05:23:41;13.70;;;12.40;;
4724;SDS011;2376;53.544;10.226;2023-03-23T05:26:08;12.30;;;11.13;;
4724;SDS011;2376;53.544;10.226;2023-03-23T05:28:35;12.00;;;10.80;;
4724;SDS011;2376;53.544;10.226;2023-03-23T05:31:02;11.47;;;10.40;;
4724;SDS011;2376;53.544;10.226;2023-03-23T05:33:29;12.67;;;11.53;;
4724;SDS011;2376;53.544;10.226;2023-03-23T05:35:56;11.33;;;10.07;;
4724;SDS011;2376;53.544;10.226;2023-03-23T05:38:24;11.83;;;10.50;;
4724;SDS011;2376;53.544;10.226;2023-03-23T05:40:51;10.67;;;9.63;;
4724;SDS011;2376;53.544;10.226;2023-03-23T05:43:18;12.03;;;10.37;;
4724;SDS011;2376;53.544;10.226;2023-03-23T05:45:46;9.53;;;8.63;;
4724;SDS011;2376;53.544;10.226;2023-03-23T05:48:13;13.67;;;8.70;;
4724;SDS011;2376;53.544;10.226;2023-03-23T05:50:40;9.50;;;8.70;;
4724;SDS011;2376;53.544;10.226;2023-03-23T05:53:07;9.27;;;8.37;;
4724;SDS011;2376;53.544;10.226;2023-03-23T05:55:35;9.53;;;8.60;;
4724;SDS011;2376;53.544;10.226;2023-03-23T05:58:02;9.33;;;8.40;;
4724;SDS011;2376;53.544;10.226;2023-03-23T06:00:29;8.67;;;7.80;;
4724;SDS011;2376;53.544;10.226;2023-03-23T06:02:57;9.57;;;8.47;;
4724;SDS011;2376;53.544;10.226;2023-03-23T06:05:26;8.63;;;6.97;;
4724;SDS011;2376;53.544;10.226;2023-03-23T06:07:54;7.90;;;7.10;;
4724;SDS011;2376;53.544;10.226;2023-03-23T06:10:21;6.70;;;6.10;;
4724;SDS011;2376;53.544;10.226;2023-03-23T06:12:50;7.57;;;6.83;;
4724;SDS011;2376;53.544;10.226;2023-03-23T06:15:17;6.20;;;5.63;;
4724;SDS011;2376;53.544;10.226;2023-03-23T06:17:44;6.50;;;6.00;;
4724;SDS011;2376;53.544;10.226;2023-03-23T06:20:12;9.90;;;6.87;;
4724;SDS011;2376;53.544;10.226;2023-03-23T06:22:39;6.83;;;6.00;;
4724;SDS011;2376;53.544;10.226;2023-03-23T06:25:07;5.97;;;5.47;;
4724;SDS011;2376;53.544;10.226;2023-03-23T06:27:36;7.60;;;5.60;;
4724;SDS011;2376;53.544;10.226;2023-03-23T06:30:05;5.67;;;5.17;;
4724;SDS011;2376;53.544;10.226;2023-03-23T06:32:33;5.47;;;5.07;;
4724;SDS011;2376;53.544;10.226;2023-03-23T06:35:00;7.37;;;5.67;;
4724;SDS011;2376;53.544;10.226;2023-03-23T06:37:28;7.03;;;5.53;;
4724;SDS011;2376;53.544;10.226;2023-03-23T06:39:55;6.13;;;5.20;;
4724;SDS011;2376;53.544;10.226;2023-03-23T06:42:22;5.40;;;4.87;;
4724;SDS011;2376;53.544;10.226;2023-03-23T06:44:50;4.90;;;4.30;;
4724;SDS011;2376;53.544;10.226;2023-03-23T06:47:18;4.30;;;4.00;;
4724;SDS011;2376;53.544;10.226;2023-03-23T06:49:45;4.93;;;4.50;;
4724;SDS011;2376;53.544;10.226;2023-03-23T06:52:12;4.67;;;3.73;;
4724;SDS011;2376;53.544;10.226;2023-03-23T06:54:39;5.10;;;4.77;;
4724;SDS011;2376;53.544;10.226;2023-03-23T06:57:07;4.87;;;4.37;;
4724;SDS011;2376;53.544;10.226;2023-03-23T06:59:34;4.60;;;4.23;;
4724;SDS011;2376;53.544;10.226;2023-03-23T07:02:00;4.30;;;4.00;;
4724;SDS011;2376;53.544;10.226;2023-03-23T07:04:29;4.53;;;4.03;;
4724;SDS011;2376;53.544;10.226;2023-03-23T07:06:57;3.70;;;3.40;;
4724;SDS011;2376;53.544;10.226;2023-03-23T07:09:24;4.37;;;4.03;;
4724;SDS011;2376;53.544;10.226;2023-03-23T07:11:51;4.30;;;3.90;;
4724;SDS011;2376;53.544;10.226;2023-03-23T07:14:18;5.07;;;4.70;;
4724;SDS011;2376;53.544;10.226;2023-03-23T07:16:46;4.33;;;4.03;;
4724;SDS011;2376;53.544;10.226;2023-03-23T07:19:14;4.57;;;4.17;;
4724;SDS011;2376;53.544;10.226;2023-03-23T07:21:42;4.47;;;4.07;;
4724;SDS011;2376;53.544;10.226;2023-03-23T07:24:10;4.97;;;4.47;;
4724;SDS011;2376;53.544;10.226;2023-03-23T07:26:38;4.70;;;4.30;;
4724;SDS011;2376;53.544;10.226;2023-03-23T07:29:06;4.00;;;3.70;;
4724;SDS011;2376;53.544;10.226;2023-03-23T07:31:33;5.00;;;3.97;;
4724;SDS011;2376;53.544;10.226;2023-03-23T07:34:00;3.50;;;3.30;;
4724;SDS011;2376;53.544;10.226;2023-03-23T07:36:28;6.80;;;3.90;;
4724;SDS011;2376;53.544;10.226;2023-03-23T07:38:56;5.20;;;4.00;;
4724;SDS011;2376;53.544;10.226;2023-03-23T07:41:24;6.50;;;4.00;;
4724;SDS011;2376;53.544;10.226;2023-03-23T07:43:51;4.50;;;4.17;;
4724;SDS011;2376;53.544;10.226;2023-03-23T07:46:18;8.17;;;4.00;;
4724;SDS011;2376;53.544;10.226;2023-03-23T07:48:45;6.73;;;4.40;;
4724;SDS011;2376;53.544;10.226;2023-03-23T07:51:13;4.37;;;3.97;;
4724;SDS011;2376;53.544;10.226;2023-03-23T07:53:41;4.37;;;3.97;;
4724;SDS011;2376;53.544;10.226;2023-03-23T07:56:11;3.80;;;3.47;;
4724;SDS011;2376;53.544;10.226;2023-03-23T07:58:39;4.40;;;4.00;;
4724;SDS011;2376;53.544;10.226;2023-03-23T08:01:06;4.30;;;4.00;;
4724;SDS011;2376;53.544;10.226;2023-03-23T08:03:33;5.10;;;4.17;;
4724;SDS011;2376;53.544;10.226;2023-03-23T08:06:02;4.03;;;3.83;;
4724;SDS011;2376;53.544;10.226;2023-03-23T08:08:30;5.13;;;4.73;;
4724;SDS011;2376;53.544;10.226;2023-03-23T08:10:58;4.00;;;3.70;;
4724;SDS011;2376;53.544;10.226;2023-03-23T08:13:26;3.90;;;3.70;;
4724;SDS011;2376;53.544;10.226;2023-03-23T08:15:53;5.27;;;4.87;;
4724;SDS011;2376;53.544;10.226;2023-03-23T08:18:20;4.87;;;4.60;;
4724;SDS011;2376;53.544;10.226;2023-03-23T08:20:47;4.37;;;4.07;;
4724;SDS011;2376;53.544;10.226;2023-03-23T08:23:14;5.57;;;5.03;;
4724;SDS011;2376;53.544;10.226;2023-03-23T08:25:42;5.20;;;4.90;;
4724;SDS011;2376;53.544;10.226;2023-03-23T08:28:09;5.10;;;4.80;;
4724;SDS011;2376;53.544;10.226;2023-03-23T08:30:37;5.07;;;4.77;;
4724;SDS011;2376;53.544;10.226;2023-03-23T08:33:05;6.10;;;5.30;;
4724;SDS011;2376;53.544;10.226;2023-03-23T08:35:32;5.63;;;5.30;;
4724;SDS011;2376;53.544;10.226;2023-03-23T08:37:59;5.50;;;5.10;;
4724;SDS011;2376;53.544;10.226;2023-03-23T08:40:26;7.93;;;6.80;;
4724;SDS011;2376;53.544;10.226;2023-03-23T08:42:53;7.07;;;5.90;;
4724;SDS011;2376;53.544;10.226;2023-03-23T08:45:22;5.60;;;5.10;;
4724;SDS011;2376;53.544;10.226;2023-03-23T08:47:53;5.10;;;4.70;;
4724;SDS011;2376;53.544;10.226;2023-03-23T08:50:22;5.67;;;5.13;;
4724;SDS011;2376;53.544;10.226;2023-03-23T08:52:50;5.20;;;4.80;;
4724;SDS011;2376;53.544;10.226;2023-03-23T08:55:18;4.73;;;4.43;;
4724;SDS011;2376;53.544;10.226;2023-03-23T08:57:45;5.93;;;4.70;;
4724;SDS011;2376;53.544;10.226;2023-03-23T09:00:12;5.40;;;5.10;;
4724;SDS011;2376;53.544;10.226;2023-03-23T09:02:43;4.20;;;4.00;;
4724;SDS011;2376;53.544;10.226;2023-03-23T09:05:11;5.30;;;4.80;;
4724;SDS011;2376;53.544;10.226;2023-03-23T09:07:40;3.57;;;2.60;;
4724;SDS011;2376;53.544;10.226;2023-03-23T09:10:08;3.40;;;3.10;;
4724;SDS011;2376;53.544;10.226;2023-03-23T09:12:35;4.40;;;2.30;;
4724;SDS011;2376;53.544;10.226;2023-03-23T09:15:03;4.13;;;2.80;;
4724;SDS011;2376;53.544;10.226;2023-03-23T09:17:34;5.00;;;2.53;;
4724;SDS011;2376;53.544;10.226;2023-03-23T09:20:02;2.20;;;2.00;;
4724;SDS011;2376;53.544;10.226;2023-03-23T09:22:37;2.10;;;1.57;;
4724;SDS011;2376;53.544;10.226;2023-03-23T09:25:05;2.93;;;1.37;;
4724;SDS011;2376;53.544;10.226;2023-03-23T09:27:33;4.10;;;2.00;;
4724;SDS011;2376;53.544;10.226;2023-03-23T09:30:02;4.40;;;1.80;;
4724;SDS011;2376;53.544;10.226;2023-03-23T09:32:32;3.17;;;1.40;;
4724;SDS011;2376;53.544;10.226;2023-03-23T09:34:59;2.90;;;1.60;;
4724;SDS011;2376;53.544;10.226;2023-03-23T09:37:27;7.70;;;1.77;;
4724;SDS011;2376;53.544;10.226;2023-03-23T09:39:56;3.23;;;1.90;;
4724;SDS011;2376;53.544;10.226;2023-03-23T09:45:15;3.17;;;1.80;;
4724;SDS011;2376;53.544;10.226;2023-03-23T09:47:47;3.63;;;1.60;;
4724;SDS011;2376;53.544;10.226;2023-03-23T09:50:22;4.57;;;2.07;;
4724;SDS011;2376;53.544;10.226;2023-03-23T09:52:58;7.13;;;1.97;;
4724;SDS011;2376;53.544;10.226;2023-03-23T09:55:28;5.80;;;2.13;;
4724;SDS011;2376;53.544;10.226;2023-03-23T09:57:58;8.40;;;1.93;;
4724;SDS011;2376;53.544;10.226;2023-03-23T10:00:29;4.57;;;1.60;;
4724;SDS011;2376;53.544;10.226;2023-03-23T10:02:59;8.03;;;1.83;;
4724;SDS011;2376;53.544;10.226;2023-03-23T10:05:32;6.43;;;1.87;;
4724;SDS011;2376;53.544;10.226;2023-03-23T10:08:02;2.50;;;1.97;;
4724;SDS011;2376;53.544;10.226;2023-03-23T10:10:39;7.43;;;2.00;;
4724;SDS011;2376;53.544;10.226;2023-03-23T10:13:14;3.57;;;1.83;;
4724;SDS011;2376;53.544;10.226;2023-03-23T10:15:46;6.83;;;2.20;;
4724;SDS011;2376;53.544;10.226;2023-03-23T10:18:17;8.20;;;2.80;;
4724;SDS011;2376;53.544;10.226;2023-03-23T10:20:47;2.90;;;2.03;;
4724;SDS011;2376;53.544;10.226;2023-03-23T10:26:21;9.80;;;2.60;;
4724;SDS011;2376;53.544;10.226;2023-03-23T10:29:03;6.97;;;2.40;;
4724;SDS011;2376;53.544;10.226;2023-03-23T10:31:39;6.70;;;2.23;;
4724;SDS011;2376;53.544;10.226;2023-03-23T10:34:11;4.40;;;1.90;;
4724;SDS011;2376;53.544;10.226;2023-03-23T10:36:48;4.33;;;1.83;;
4724;SDS011;2376;53.544;10.226;2023-03-23T10:39:21;12.10;;;2.10;;
4724;SDS011;2376;53.544;10.226;2023-03-23T10:41:51;6.60;;;2.10;;
4724;SDS011;2376;53.544;10.226;2023-03-23T10:44:19;9.00;;;2.73;;
4724;SDS011;2376;53.544;10.226;2023-03-23T10:46:49;6.33;;;1.93;;
4724;SDS011;2376;53.544;10.226;2023-03-23T10:49:23;4.87;;;1.67;;
4724;SDS011;2376;53.544;10.226;2023-03-23T10:51:56;6.10;;;1.67;;
4724;SDS011;2376;53.544;10.226;2023-03-23T10:54:31;12.60;;;2.10;;
4724;SDS011;2376;53.544;10.226;2023-03-23T10:57:11;5.73;;;2.20;;
4724;SDS011;2376;53.544;10.226;2023-03-23T10:59:39;10.30;;;2.70;;
4724;SDS011;2376;53.544;10.226;2023-03-23T11:02:18;11.67;;;2.53;;
4724;SDS011;2376;53.544;10.226;2023-03-23T11:04:56;5.10;;;2.03;;
4724;SDS011;2376;53.544;10.226;2023-03-23T11:07:29;3.63;;;2.83;;
4724;SDS011;2376;53.544;10.226;2023-03-23T11:10:03;4.90;;;2.60;;
4724;SDS011;2376;53.544;10.226;2023-03-23T11:12:36;7.83;;;2.70;;
4724;SDS011;2376;53.544;10.226;2023-03-23T11:15:03;7.13;;;2.23;;
4724;SDS011;2376;53.544;10.226;2023-03-23T11:17:53;10.50;;;2.43;;
4724;SDS011;2376;53.544;10.226;2023-03-23T11:20:22;8.40;;;2.90;;
4724;SDS011;2376;53.544;10.226;2023-03-23T11:22:49;4.73;;;1.87;;
4724;SDS011;2376;53.544;10.226;2023-03-23T11:25:16;8.50;;;2.30;;
4724;SDS011;2376;53.544;10.226;2023-03-23T11:27:44;9.80;;;2.23;;
4724;SDS011;2376;53.544;10.226;2023-03-23T11:30:18;7.90;;;2.40;;
4724;SDS011;2376;53.544;10.226;2023-03-23T11:32:48;7.57;;;2.87;;
4724;SDS011;2376;53.544;10.226;2023-03-23T11:35:15;9.20;;;2.47;;
4724;SDS011;2376;53.544;10.226;2023-03-23T11:37:45;8.23;;;2.80;;
4724;SDS011;2376;53.544;10.226;2023-03-23T11:40:15;9.87;;;2.30;;
4724;SDS011;2376;53.544;10.226;2023-03-23T11:42:45;14.40;;;2.57;;
4724;SDS011;2376;53.544;10.226;2023-03-23T11:45:15;5.53;;;2.10;;
4724;SDS011;2376;53.544;10.226;2023-03-23T11:47:47;4.33;;;2.33;;
4724;SDS011;2376;53.544;10.226;2023-03-23T11:50:23;13.10;;;3.57;;
4724;SDS011;2376;53.544;10.226;2023-03-23T11:52:54;8.37;;;2.43;;
4724;SDS011;2376;53.544;10.226;2023-03-23T11:55:30;12.23;;;3.10;;
4724;SDS011;2376;53.544;10.226;2023-03-23T11:58:13;7.83;;;2.80;;
4724;SDS011;2376;53.544;10.226;2023-03-23T12:00:44;6.10;;;2.40;;
4724;SDS011;2376;53.544;10.226;2023-03-23T12:03:28;6.27;;;3.17;;
4724;SDS011;2376;53.544;10.226;2023-03-23T12:06:11;5.50;;;3.13;;
4724;SDS011;2376;53.544;10.226;2023-03-23T12:08:47;5.57;;;2.47;;
4724;SDS011;2376;53.544;10.226;2023-03-23T12:11:23;10.17;;;3.70;;
4724;SDS011;2376;53.544;10.226;2023-03-23T12:14:02;11.67;;;3.23;;
4724;SDS011;2376;53.544;10.226;2023-03-23T12:16:47;12.43;;;2.90;;
4724;SDS011;2376;53.544;10.226;2023-03-23T12:19:33;7.17;;;2.87;;
4724;SDS011;2376;53.544;10.226;2023-03-23T12:22:10;6.90;;;2.47;;
4724;SDS011;2376;53.544;10.226;2023-03-23T12:24:50;8.03;;;3.20;;
4724;SDS011;2376;53.544;10.226;2023-03-23T12:27:26;5.30;;;2.53;;
4724;SDS011;2376;53.544;10.226;2023-03-23T12:32:58;6.07;;;2.70;;
4724;SDS011;2376;53.544;10.226;2023-03-23T12:35:40;6.53;;;2.60;;
4724;SDS011;2376;53.544;10.226;2023-03-23T12:38:25;6.13;;;2.70;;
4724;SDS011;2376;53.544;10.226;2023-03-23T12:43:51;2.57;;;2.30;;
4724;SDS011;2376;53.544;10.226;2023-03-23T12:46:37;7.60;;;2.83;;
4724;SDS011;2376;53.544;10.226;2023-03-23T12:49:15;7.00;;;3.20;;
4724;SDS011;2376;53.544;10.226;2023-03-23T12:51:48;5.70;;;2.47;;
4724;SDS011;2376;53.544;10.226;2023-03-23T12:54:21;9.37;;;2.83;;
4724;SDS011;2376;53.544;10.226;2023-03-23T12:56:54;5.00;;;3.20;;
4724;SDS011;2376;53.544;10.226;2023-03-23T12:59:28;6.10;;;3.03;;
4724;SDS011;2376;53.544;10.226;2023-03-23T13:02:08;4.80;;;2.63;;
4724;SDS011;2376;53.544;10.226;2023-03-23T13:04:43;5.83;;;2.60;;
4724;SDS011;2376;53.544;10.226;2023-03-23T13:07:14;10.33;;;3.37;;
4724;SDS011;2376;53.544;10.226;2023-03-23T13:09:49;8.37;;;3.10;;
4724;SDS011;2376;53.544;10.226;2023-03-23T13:12:20;7.70;;;2.80;;
4724;SDS011;2376;53.544;10.226;2023-03-23T13:14:50;11.70;;;3.43;;
4724;SDS011;2376;53.544;10.226;2023-03-23T13:17:31;4.63;;;2.40;;
4724;SDS011;2376;53.544;10.226;2023-03-23T13:20:23;9.80;;;3.00;;
4724;SDS011;2376;53.544;10.226;2023-03-23T13:23:13;7.93;;;3.60;;
4724;SDS011;2376;53.544;10.226;2023-03-23T13:25:51;8.00;;;3.00;;
4724;SDS011;2376;53.544;10.226;2023-03-23T13:28:23;6.73;;;3.50;;
4724;SDS011;2376;53.544;10.226;2023-03-23T13:30:54;9.60;;;3.20;;
4724;SDS011;2376;53.544;10.226;2023-03-23T13:33:23;6.40;;;3.30;;
4724;SDS011;2376;53.544;10.226;2023-03-23T13:35:50;6.93;;;3.50;;
4724;SDS011;2376;53.544;10.226;2023-03-23T13:38:19;5.33;;;3.37;;
4724;SDS011;2376;53.544;10.226;2023-03-23T13:40:48;5.20;;;2.97;;
4724;SDS011;2376;53.544;10.226;2023-03-23T13:43:24;6.83;;;3.20;;
4724;SDS011;2376;53.544;10.226;2023-03-23T13:45:53;3.90;;;2.33;;
4724;SDS011;2376;53.544;10.226;2023-03-23T13:48:21;3.47;;;2.60;;
4724;SDS011;2376;53.544;10.226;2023-03-23T13:50:52;4.70;;;3.07;;
4724;SDS011;2376;53.544;10.226;2023-03-23T13:53:22;5.13;;;2.30;;
4724;SDS011;2376;53.544;10.226;2023-03-23T13:56:04;4.80;;;2.43;;
4724;SDS011;2376;53.544;10.226;2023-03-23T13:58:43;4.00;;;2.50;;
4724;SDS011;2376;53.544;10.226;2023-03-23T14:01:13;7.33;;;3.30;;
4724;SDS011;2376;53.544;10.226;2023-03-23T14:03:44;2.60;;;1.83;;
4724;SDS011;2376;53.544;10.226;2023-03-23T14:06:15;3.93;;;2.77;;
4724;SDS011;2376;53.544;10.226;2023-03-23T14:08:46;3.10;;;2.17;;
4724;SDS011;2376;53.544;10.226;2023-03-23T14:11:17;4.73;;;1.80;;
4724;SDS011;2376;53.544;10.226;2023-03-23T14:13:50;2.70;;;1.80;;
4724;SDS011;2376;53.544;10.226;2023-03-23T14:16:28;5.87;;;2.13;;
4724;SDS011;2376;53.544;10.226;2023-03-23T14:19:13;2.47;;;1.73;;
4724;SDS011;2376;53.544;10.226;2023-03-23T14:21:42;1.57;;;1.47;;
4724;SDS011;2376;53.544;10.226;2023-03-23T14:24:15;4.13;;;2.03;;
4724;SDS011;2376;53.544;10.226;2023-03-23T14:26:44;1.87;;;1.77;;
4724;SDS011;2376;53.544;10.226;2023-03-23T14:29:12;3.53;;;1.77;;
4724;SDS011;2376;53.544;10.226;2023-03-23T14:31:40;2.10;;;1.20;;
4724;SDS011;2376;53.544;10.226;2023-03-23T14:34:12;3.30;;;1.40;;
4724;SDS011;2376;53.544;10.226;2023-03-23T14:36:40;1.83;;;1.10;;
4724;SDS011;2376;53.544;10.226;2023-03-23T14:39:18;2.60;;;1.50;;
4724;SDS011;2376;53.544;10.226;2023-03-23T14:41:48;1.40;;;0.90;;
4724;SDS011;2376;53.544;10.226;2023-03-23T14:44:17;1.40;;;1.20;;
4724;SDS011;2376;53.544;10.226;2023-03-23T14:46:47;1.93;;;1.10;;
4724;SDS011;2376;53.544;10.226;2023-03-23T14:49:17;1.83;;;1.03;;
4724;SDS011;2376;53.544;10.226;2023-03-23T14:51:47;3.93;;;1.83;;
4724;SDS011;2376;53.544;10.226;2023-03-23T14:54:18;5.20;;;1.60;;
4724;SDS011;2376;53.544;10.226;2023-03-23T14:56:48;2.60;;;1.80;;
4724;SDS011;2376;53.544;10.226;2023-03-23T14:59:15;3.30;;;2.30;;
4724;SDS011;2376;53.544;10.226;2023-03-23T15:01:42;3.47;;;1.63;;
4724;SDS011;2376;53.544;10.226;2023-03-23T15:04:12;4.50;;;1.57;;
4724;SDS011;2376;53.544;10.226;2023-03-23T15:06:44;7.27;;;1.80;;
4724;SDS011;2376;53.544;10.226;2023-03-23T15:09:15;3.20;;;1.53;;
4724;SDS011;2376;53.544;10.226;2023-03-23T15:11:50;1.87;;;1.30;;
4724;SDS011;2376;53.544;10.226;2023-03-23T15:14:20;2.67;;;1.43;;
4724;SDS011;2376;53.544;10.226;2023-03-23T15:16:49;1.63;;;1.43;;
4724;SDS011;2376;53.544;10.226;2023-03-23T15:19:19;2.13;;;1.67;;
4724;SDS011;2376;53.544;10.226;2023-03-23T15:21:50;3.10;;;1.73;;
4724;SDS011;2376;53.544;10.226;2023-03-23T15:24:20;4.30;;;1.73;;
4724;SDS011;2376;53.544;10.226;2023-03-23T15:26:51;3.43;;;1.37;;